Kjahta, Russia
Current Conditions -  °F | °C
As of 7:00 AM on Tuesday 21 Oct 2014 (Local Time) from UIUU Reporting Station
Few Clouds Few Clouds  
Wind Chill: -2°   Ceiling: Unl
Heat Index: 10°   Visibility: 6mi
Dew Point:   Wind: 9mph
Humidity: 73%   Direction: 110°ESE
Pressure: 30.18"   Gusts: NA
Location:  50.35°N, 106.45°E
Report Text: UIUU 202300Z 11004MPS 9999 FEW100 M12/M16 Q1022 NOSIG RMKQFE722/0963 26CLRD60
Loading
Personal Weather Stations






























Interactive Weather Map
Tropical Storm Tracking
New forecast layout! Learn more

10-Day Weather Forecast

Advertisements
Track Severe Weather on mobile